Time;durP1;ratioP1;P1;durP2;ratioP2;P2;SDS_P1;SDS_P2;PMS_P1;PMS_P2;Temp;Humidity;BMP_temperature;BMP_pressure;BME280_temperature;BME280_humidity;BME280_pressure;Samples;Min_cycle;Max_cycle;Signal;HPM_P1;HPM_P2
2022/04/14 00:01:36;;;;;;;42.83;26.75;;;;;;;;;;5038321;28;20057;-79
2022/04/14 00:04:03;;;;;;;43.92;26.90;;;;;;;;;;5036977;28;20099;-79
2022/04/14 00:06:30;;;;;;;50.17;28.73;;;;;;;;;;5034057;28;20054;-78
2022/04/14 00:08:57;;;;;;;45.35;28.50;;;;;;;;;;5034701;28;20149;-78
2022/04/14 00:11:24;;;;;;;43.15;25.98;;;;;;;;;;5034680;28;20053;-78
2022/04/14 00:13:53;;;;;;;45.65;26.67;;;;;;;;;;5035996;28;20049;-77
2022/04/14 00:16:20;;;;;;;44.55;26.25;;;;;;;;;;5035894;28;20041;-79
2022/04/14 00:18:46;;;;;;;46.80;26.83;;;;;;;;;;5036811;28;20049;-78
2022/04/14 00:21:13;;;;;;;43.72;26.30;;;;;;;;;;5036779;28;20061;-79
2022/04/14 00:23:40;;;;;;;44.55;26.40;;;;;;;;;;5036726;28;20053;-78
2022/04/14 00:26:07;;;;;;;43.55;26.77;;;;;;;;;;5035999;28;20038;-78
2022/04/14 00:28:34;;;;;;;46.00;27.42;;;;;;;;;;5037039;28;20103;-79
2022/04/14 00:31:04;;;;;;;46.70;26.05;;;;;;;;;;5043604;28;20045;-79
2022/04/14 00:33:31;;;;;;;41.95;27.23;;;;;;;;;;5039378;28;20136;-78
2022/04/14 00:35:57;;;;;;;43.63;25.75;;;;;;;;;;5038021;28;20076;-78
2022/04/14 00:38:24;;;;;;;48.67;27.50;;;;;;;;;;5039085;28;20056;-77
2022/04/14 00:40:52;;;;;;;45.35;27.40;;;;;;;;;;5047703;28;20037;-77
2022/04/14 00:43:20;;;;;;;42.67;28.13;;;;;;;;;;5046961;28;20037;-77
2022/04/14 00:45:49;;;;;;;44.88;27.70;;;;;;;;;;5038546;28;20049;-78
2022/04/14 00:48:18;;;;;;;44.10;26.33;;;;;;;;;;5035471;28;20049;-77
2022/04/14 00:50:45;;;;;;;51.13;28.00;;;;;;;;;;5034965;28;20111;-77
2022/04/14 00:53:12;;;;;;;45.85;27.33;;;;;;;;;;5035393;28;20046;-79
2022/04/14 00:55:39;;;;;;;41.95;25.88;;;;;;;;;;5038093;28;20080;-80
2022/04/14 00:58:06;;;;;;;41.40;27.90;;;;;;;;;;5035655;28;20045;-79
2022/04/14 01:00:32;;;;;;;42.90;25.42;;;;;;;;;;5036246;28;20049;-79
2022/04/14 01:03:00;;;;;;;42.03;24.75;;;;;;;;;;5038223;28;20049;-79
2022/04/14 01:05:29;;;;;;;43.28;24.60;;;;;;;;;;5037689;28;20095;-79
2022/04/14 01:07:57;;;;;;;41.35;24.95;;;;;;;;;;5038004;28;20049;-79
2022/04/14 01:10:26;;;;;;;38.10;25.33;;;;;;;;;;5038259;28;20127;-78
2022/04/14 01:12:53;;;;;;;42.42;24.15;;;;;;;;;;5040548;28;20633;-79
2022/04/14 01:15:20;;;;;;;40.65;24.25;;;;;;;;;;5037307;28;20045;-79
2022/04/14 01:17:47;;;;;;;40.13;24.48;;;;;;;;;;5038242;28;20081;-78
2022/04/14 01:20:14;;;;;;;42.00;23.60;;;;;;;;;;5036919;28;20077;-80
2022/04/14 01:22:46;;;;;;;40.55;23.88;;;;;;;;;;5037158;28;20057;-79
2022/04/14 01:25:14;;;;;;;36.60;23.60;;;;;;;;;;5041066;28;20115;-77
2022/04/14 01:27:41;;;;;;;38.88;25.13;;;;;;;;;;5042229;28;20057;-77
2022/04/14 01:30:09;;;;;;;42.05;24.17;;;;;;;;;;5041686;28;20057;-79
2022/04/14 01:32:36;;;;;;;41.78;24.13;;;;;;;;;;5038468;28;20049;-79
2022/04/14 01:35:03;;;;;;;39.75;24.13;;;;;;;;;;5037126;28;20111;-79
2022/04/14 01:37:29;;;;;;;43.35;24.73;;;;;;;;;;5036793;28;20045;-79
2022/04/14 01:39:56;;;;;;;43.55;23.50;;;;;;;;;;5037768;28;20110;-78
2022/04/14 01:42:24;;;;;;;40.47;23.90;;;;;;;;;;5035492;28;20042;-79
2022/04/14 01:44:51;;;;;;;41.13;23.52;;;;;;;;;;5035593;28;20473;-79
2022/04/14 01:47:18;;;;;;;43.10;23.90;;;;;;;;;;5018672;28;20049;-79
2022/04/14 01:49:45;;;;;;;45.22;23.83;;;;;;;;;;5019819;28;20532;-79
2022/04/14 01:52:12;;;;;;;43.17;22.45;;;;;;;;;;5016153;28;20101;-79
2022/04/14 01:54:39;;;;;;;45.72;23.77;;;;;;;;;;5015540;28;20100;-78
2022/04/14 01:57:06;;;;;;;39.58;23.00;;;;;;;;;;5016381;28;20488;-79
2022/04/14 01:59:34;;;;;;;47.35;26.13;;;;;;;;;;5019017;28;20054;-79
2022/04/14 02:02:01;;;;;;;41.70;22.70;;;;;;;;;;5019245;28;20050;-78
2022/04/14 02:04:28;;;;;;;48.88;26.17;;;;;;;;;;5036472;23;20506;-70
2022/04/14 02:06:55;;;;;;;44.63;26.17;;;;;;;;;;5011184;28;20052;-70
2022/04/14 02:09:22;;;;;;;40.05;22.58;;;;;;;;;;5011417;28;20053;-69
2022/04/14 02:11:49;;;;;;;43.10;24.83;;;;;;;;;;5011430;28;20056;-69
2022/04/14 02:14:16;;;;;;;42.60;23.25;;;;;;;;;;5011473;28;20046;-69
2022/04/14 02:16:44;;;;;;;38.40;23.98;;;;;;;;;;5011034;28;20057;-68
2022/04/14 02:19:11;;;;;;;43.88;25.55;;;;;;;;;;5011394;28;20056;-68
2022/04/14 02:21:38;;;;;;;58.92;26.20;;;;;;;;;;5010740;28;20049;-68
2022/04/14 02:24:06;;;;;;;41.95;23.52;;;;;;;;;;5011563;28;20053;-68
2022/04/14 02:26:33;;;;;;;44.10;24.08;;;;;;;;;;5010585;28;20068;-68
2022/04/14 02:28:59;;;;;;;41.08;23.73;;;;;;;;;;5011248;28;20046;-68
2022/04/14 02:31:26;;;;;;;42.20;23.17;;;;;;;;;;5010933;28;20054;-68
2022/04/14 02:33:55;;;;;;;40.17;23.25;;;;;;;;;;5011096;28;20096;-69
2022/04/14 02:36:23;;;;;;;43.15;24.40;;;;;;;;;;5010602;28;20049;-70
2022/04/14 02:38:50;;;;;;;45.35;24.88;;;;;;;;;;5010844;28;20149;-69
2022/04/14 02:41:17;;;;;;;41.38;24.38;;;;;;;;;;5010851;28;20136;-69
2022/04/14 02:43:44;;;;;;;41.75;24.10;;;;;;;;;;5011049;28;20129;-69
2022/04/14 02:46:11;;;;;;;41.83;23.90;;;;;;;;;;5010682;28;20510;-69
2022/04/14 02:48:38;;;;;;;39.65;24.02;;;;;;;;;;5011028;28;20116;-70
2022/04/14 02:51:07;;;;;;;40.45;24.10;;;;;;;;;;5010911;28;20050;-70
2022/04/14 02:53:34;;;;;;;45.83;24.90;;;;;;;;;;5011111;28;20046;-69
2022/04/14 02:56:00;;;;;;;46.72;24.30;;;;;;;;;;5010450;28;20050;-69
2022/04/14 02:58:28;;;;;;;42.63;23.35;;;;;;;;;;5011118;28;20064;-69
2022/04/14 03:00:55;;;;;;;43.20;23.60;;;;;;;;;;5010951;28;20073;-69
2022/04/14 03:03:23;;;;;;;43.42;23.35;;;;;;;;;;5010434;28;20057;-69
2022/04/14 03:05:51;;;;;;;43.33;24.65;;;;;;;;;;5010390;28;20066;-68
2022/04/14 03:08:19;;;;;;;41.60;23.90;;;;;;;;;;5010933;28;20501;-68
2022/04/14 03:10:46;;;;;;;43.28;23.92;;;;;;;;;;5010442;28;20426;-68
2022/04/14 03:13:13;;;;;;;43.03;25.52;;;;;;;;;;5010584;28;20060;-69
2022/04/14 03:15:40;;;;;;;41.53;23.38;;;;;;;;;;5010302;28;20495;-69
2022/04/14 03:18:07;;;;;;;46.97;25.40;;;;;;;;;;5010426;28;20046;-68
2022/04/14 03:20:34;;;;;;;47.28;25.60;;;;;;;;;;5010975;28;20056;-69
2022/04/14 03:23:01;;;;;;;47.90;24.27;;;;;;;;;;5010147;28;20096;-69
2022/04/14 03:25:30;;;;;;;43.33;25.67;;;;;;;;;;5010573;28;20064;-68
2022/04/14 03:27:57;;;;;;;40.60;24.00;;;;;;;;;;5010859;28;20144;-69
2022/04/14 03:30:24;;;;;;;48.45;25.10;;;;;;;;;;5010996;28;20407;-68
2022/04/14 03:32:51;;;;;;;52.17;27.13;;;;;;;;;;5010668;28;20566;-69
2022/04/14 03:35:18;;;;;;;43.95;24.63;;;;;;;;;;5010118;28;20054;-70
2022/04/14 03:37:45;;;;;;;46.80;24.45;;;;;;;;;;5009454;28;20107;-69
2022/04/14 03:40:14;;;;;;;47.55;25.65;;;;;;;;;;5010082;28;20220;-70
2022/04/14 03:42:42;;;;;;;44.35;24.27;;;;;;;;;;5010638;28;20440;-69
2022/04/14 03:45:09;;;;;;;50.80;25.75;;;;;;;;;;5005507;28;20517;-69
2022/04/14 03:47:37;;;;;;;46.53;26.10;;;;;;;;;;4990668;28;20089;-69
2022/04/14 03:50:05;;;;;;;53.83;26.67;;;;;;;;;;4990901;28;20043;-69
2022/04/14 03:52:32;;;;;;;48.42;26.70;;;;;;;;;;4990571;28;20653;-69
2022/04/14 03:54:58;;;;;;;47.47;26.15;;;;;;;;;;4990221;28;20065;-69
2022/04/14 03:57:25;;;;;;;48.83;27.45;;;;;;;;;;4989948;28;20063;-70
2022/04/14 03:59:54;;;;;;;44.25;24.48;;;;;;;;;;4990291;28;20054;-69
2022/04/14 04:02:21;;;;;;;44.22;26.00;;;;;;;;;;4990467;28;20146;-69
2022/04/14 04:04:48;;;;;;;48.03;26.00;;;;;;;;;;4989785;28;20055;-69
2022/04/14 04:07:15;;;;;;;50.38;25.80;;;;;;;;;;4990389;28;20126;-68
2022/04/14 04:09:42;;;;;;;48.47;26.25;;;;;;;;;;4990360;28;20054;-69
2022/04/14 04:12:10;;;;;;;48.45;25.70;;;;;;;;;;4990416;28;20050;-69
2022/04/14 04:14:37;;;;;;;43.95;25.30;;;;;;;;;;4990152;28;20566;-70
2022/04/14 04:17:06;;;;;;;56.30;27.45;;;;;;;;;;4990638;28;20046;-68
2022/04/14 04:19:33;;;;;;;49.35;26.40;;;;;;;;;;4990413;28;20073;-68
2022/04/14 04:22:00;;;;;;;53.35;26.98;;;;;;;;;;4990540;28;20503;-68
2022/04/14 04:24:27;;;;;;;49.50;27.33;;;;;;;;;;4990057;28;20046;-69
2022/04/14 04:26:54;;;;;;;49.15;26.35;;;;;;;;;;4989817;28;20480;-68
2022/04/14 04:29:21;;;;;;;49.47;26.15;;;;;;;;;;4989705;28;20145;-67
2022/04/14 04:31:48;;;;;;;45.95;25.05;;;;;;;;;;4990297;28;20427;-70
2022/04/14 04:34:17;;;;;;;46.22;26.52;;;;;;;;;;4990533;28;20057;-67
2022/04/14 04:36:44;;;;;;;47.13;25.50;;;;;;;;;;4994108;28;20526;-68
2022/04/14 04:39:11;;;;;;;44.60;24.88;;;;;;;;;;4993628;28;20096;-69
2022/04/14 04:41:38;;;;;;;40.78;24.42;;;;;;;;;;4993754;28;20061;-68
2022/04/14 04:44:05;;;;;;;47.75;26.45;;;;;;;;;;4993702;28;20061;-69
2022/04/14 04:46:33;;;;;;;44.45;25.23;;;;;;;;;;5009840;28;20100;-69
2022/04/14 04:48:59;;;;;;;43.35;23.42;;;;;;;;;;5013101;28;20042;-68
2022/04/14 04:51:28;;;;;;;45.67;25.23;;;;;;;;;;5013386;28;20060;-68
2022/04/14 04:53:55;;;;;;;48.20;25.42;;;;;;;;;;5012683;28;20418;-69
2022/04/14 04:56:22;;;;;;;45.20;24.23;;;;;;;;;;5012596;28;20056;-68
2022/04/14 04:58:49;;;;;;;55.83;28.00;;;;;;;;;;5012767;28;20054;-68
2022/04/14 05:01:16;;;;;;;44.33;26.58;;;;;;;;;;5013224;28;20053;-69
2022/04/14 05:03:43;;;;;;;53.70;24.88;;;;;;;;;;5012613;28;20050;-68
2022/04/14 05:06:10;;;;;;;46.90;26.70;;;;;;;;;;5012577;28;20054;-69
2022/04/14 05:08:38;;;;;;;52.25;26.17;;;;;;;;;;5013002;28;20049;-69
2022/04/14 05:11:05;;;;;;;49.50;26.58;;;;;;;;;;5013577;28;20053;-69
2022/04/14 05:13:32;;;;;;;48.65;26.85;;;;;;;;;;5013023;28;20045;-68
2022/04/14 05:15:59;;;;;;;50.58;25.15;;;;;;;;;;5012411;28;20050;-68
2022/04/14 05:18:26;;;;;;;52.55;25.80;;;;;;;;;;5012449;28;20089;-69
2022/04/14 05:20:53;;;;;;;55.25;28.25;;;;;;;;;;5012758;28;20057;-69
2022/04/14 05:23:20;;;;;;;47.67;25.65;;;;;;;;;;5012791;28;20462;-69
2022/04/14 05:25:48;;;;;;;45.53;25.13;;;;;;;;;;5012584;28;20518;-70
2022/04/14 05:28:15;;;;;;;42.83;25.30;;;;;;;;;;5012560;28;20423;-69
2022/04/14 05:30:42;;;;;;;50.78;25.83;;;;;;;;;;5012598;28;20487;-69
2022/04/14 05:33:10;;;;;;;46.75;25.98;;;;;;;;;;5011870;28;20269;-69
2022/04/14 05:35:38;;;;;;;47.65;25.70;;;;;;;;;;5011818;28;20145;-69
2022/04/14 05:38:06;;;;;;;54.47;29.25;;;;;;;;;;5012071;28;20112;-69
2022/04/14 05:40:35;;;;;;;47.60;26.00;;;;;;;;;;5012048;28;20054;-69
2022/04/14 05:43:03;;;;;;;74.60;28.52;;;;;;;;;;5012099;28;20057;-69
2022/04/14 05:45:31;;;;;;;50.85;26.80;;;;;;;;;;5003690;28;20472;-70
2022/04/14 05:47:57;;;;;;;48.08;25.30;;;;;;;;;;4992007;28;20146;-70
2022/04/14 05:50:24;;;;;;;46.42;25.58;;;;;;;;;;4992631;28;20466;-70
2022/04/14 05:52:51;;;;;;;47.20;25.80;;;;;;;;;;4992535;28;20507;-69
2022/04/14 05:55:18;;;;;;;45.60;25.90;;;;;;;;;;4992239;28;20060;-70
2022/04/14 05:57:46;;;;;;;52.30;26.38;;;;;;;;;;4992999;28;20410;-69
2022/04/14 06:00:15;;;;;;;48.72;26.00;;;;;;;;;;4992762;28;20524;-69
2022/04/14 06:02:42;;;;;;;55.10;28.10;;;;;;;;;;4992349;28;20046;-70
2022/04/14 06:05:10;;;;;;;47.53;25.90;;;;;;;;;;4991780;28;20086;-69
2022/04/14 06:07:37;;;;;;;53.90;25.25;;;;;;;;;;4992407;28;20070;-70
2022/04/14 06:10:04;;;;;;;48.50;26.05;;;;;;;;;;4992331;28;20054;-69
2022/04/14 06:12:31;;;;;;;44.90;24.77;;;;;;;;;;4992383;28;20129;-70
2022/04/14 06:14:58;;;;;;;44.80;24.13;;;;;;;;;;4992016;28;20491;-69
2022/04/14 06:17:26;;;;;;;45.22;24.63;;;;;;;;;;4992090;28;20050;-69
2022/04/14 06:19:55;;;;;;;43.63;24.98;;;;;;;;;;4991210;28;20058;-69
2022/04/14 06:22:22;;;;;;;50.55;26.65;;;;;;;;;;4991650;28;20062;-68
2022/04/14 06:24:49;;;;;;;53.15;26.25;;;;;;;;;;4991488;28;20086;-70
2022/04/14 06:27:16;;;;;;;52.72;26.90;;;;;;;;;;4991365;28;20050;-69
2022/04/14 06:29:43;;;;;;;46.25;27.17;;;;;;;;;;4991299;28;20066;-68
2022/04/14 06:32:11;;;;;;;46.92;26.85;;;;;;;;;;4991409;28;20057;-69
2022/04/14 06:34:39;;;;;;;49.15;25.85;;;;;;;;;;4991625;28;20082;-69
2022/04/14 06:37:06;;;;;;;45.67;26.45;;;;;;;;;;4991883;28;20057;-69
2022/04/14 06:39:33;;;;;;;48.97;26.25;;;;;;;;;;4991447;28;20046;-69
2022/04/14 06:42:00;;;;;;;53.40;26.23;;;;;;;;;;4991702;28;20056;-70
2022/04/14 06:44:27;;;;;;;48.15;26.90;;;;;;;;;;4991890;28;20046;-69
2022/04/14 06:46:54;;;;;;;44.22;25.90;;;;;;;;;;5009940;28;20483;-69
2022/04/14 06:49:21;;;;;;;44.85;25.67;;;;;;;;;;5010622;28;20423;-69
2022/04/14 06:51:49;;;;;;;44.47;24.23;;;;;;;;;;5010205;28;20049;-69
2022/04/14 06:54:17;;;;;;;45.63;24.48;;;;;;;;;;5011105;28;20459;-69
2022/04/14 06:56:44;;;;;;;43.72;25.00;;;;;;;;;;5010574;28;20057;-68
2022/04/14 06:59:11;;;;;;;40.30;23.88;;;;;;;;;;5010061;28;20081;-70
2022/04/14 07:01:38;;;;;;;44.45;25.25;;;;;;;;;;5010565;28;20050;-69
2022/04/14 07:04:06;;;;;;;42.22;24.45;;;;;;;;;;5000211;28;20061;-70
2022/04/14 07:06:33;;;;;;;42.00;24.23;;;;;;;;;;4991711;28;20054;-69
2022/04/14 07:09:01;;;;;;;45.40;26.63;;;;;;;;;;4991637;28;20262;-69
2022/04/14 07:11:28;;;;;;;41.47;25.17;;;;;;;;;;4991410;28;20512;-68
2022/04/14 07:13:55;;;;;;;41.25;24.13;;;;;;;;;;4991589;28;20528;-70
2022/04/14 07:16:22;;;;;;;47.25;24.52;;;;;;;;;;4991373;28;20050;-69
2022/04/14 07:18:49;;;;;;;41.15;23.08;;;;;;;;;;4991004;28;20151;-70
2022/04/14 07:21:16;;;;;;;43.90;24.67;;;;;;;;;;4991271;28;20050;-70
2022/04/14 07:23:43;;;;;;;44.70;24.10;;;;;;;;;;4991518;28;20412;-71
2022/04/14 07:26:12;;;;;;;41.97;23.55;;;;;;;;;;4999218;28;20518;-73
2022/04/14 07:28:39;;;;;;;37.67;22.13;;;;;;;;;;5011226;28;20136;-68
2022/04/14 07:31:06;;;;;;;40.33;22.25;;;;;;;;;;5010663;28;20072;-70
2022/04/14 07:33:34;;;;;;;43.17;21.88;;;;;;;;;;5009852;28;20053;-69
2022/04/14 07:36:01;;;;;;;43.90;24.40;;;;;;;;;;5011074;28;20058;-69
2022/04/14 07:38:28;;;;;;;38.22;22.73;;;;;;;;;;5010550;28;20054;-70
2022/04/14 07:40:56;;;;;;;43.65;22.65;;;;;;;;;;5010781;28;20090;-71
2022/04/14 07:43:24;;;;;;;34.20;21.92;;;;;;;;;;5010714;28;20116;-70
2022/04/14 07:45:51;;;;;;;37.70;22.80;;;;;;;;;;5000675;28;20054;-71
2022/04/14 07:48:21;;;;;;;37.00;22.00;;;;;;;;;;4991649;28;20050;-69
2022/04/14 07:50:48;;;;;;;35.42;19.83;;;;;;;;;;4997749;28;20049;-69
2022/04/14 07:53:15;;;;;;;35.35;21.33;;;;;;;;;;5010497;28;20054;-69
2022/04/14 07:55:42;;;;;;;36.70;22.02;;;;;;;;;;5010545;28;20149;-69
2022/04/14 07:58:10;;;;;;;37.00;21.05;;;;;;;;;;5012325;28;20088;-70
2022/04/14 08:00:50;;;;;;;37.58;21.88;;;;;;;;;;5011628;28;20141;-72
2022/04/14 08:03:18;;;;;;;35.67;20.00;;;;;;;;;;5012271;28;20049;-67
2022/04/14 08:05:47;;;;;;;38.05;20.20;;;;;;;;;;5009633;28;20050;-69
2022/04/14 08:08:15;;;;;;;39.83;20.67;;;;;;;;;;5010105;28;20046;-70
2022/04/14 08:10:43;;;;;;;40.05;21.40;;;;;;;;;;5013937;28;20050;-68
2022/04/14 08:13:10;;;;;;;36.53;21.15;;;;;;;;;;5014091;28;20044;-71
2022/04/14 08:15:39;;;;;;;42.15;22.85;;;;;;;;;;5013268;28;20050;-68
2022/04/14 08:18:08;;;;;;;34.60;20.13;;;;;;;;;;5013078;28;20081;-69
2022/04/14 08:20:36;;;;;;;39.38;22.17;;;;;;;;;;5013421;28;20066;-70
2022/04/14 08:23:04;;;;;;;35.20;21.55;;;;;;;;;;5013205;28;20054;-67
2022/04/14 08:25:33;;;;;;;33.67;20.33;;;;;;;;;;5013496;28;20435;-68
2022/04/14 08:28:02;;;;;;;36.13;20.27;;;;;;;;;;5013120;28;20061;-69
2022/04/14 08:30:30;;;;;;;41.47;23.20;;;;;;;;;;5013026;28;20054;-69
2022/04/14 08:33:00;;;;;;;33.45;19.90;;;;;;;;;;5013425;28;20411;-69
2022/04/14 08:35:31;;;;;;;34.90;19.80;;;;;;;;;;5012830;28;20050;-69
2022/04/14 08:37:59;;;;;;;37.75;19.75;;;;;;;;;;5013179;28;20041;-68
2022/04/14 08:40:29;;;;;;;31.92;18.98;;;;;;;;;;5013052;28;20435;-68
2022/04/14 08:43:01;;;;;;;39.13;19.50;;;;;;;;;;5013111;28;20518;-69
2022/04/14 08:45:32;;;;;;;33.88;18.65;;;;;;;;;;5006496;28;20056;-68
2022/04/14 08:47:59;;;;;;;;;;;;;;;;;;5013616;28;20054;-69
2022/04/14 08:50:28;;;;;;;33.13;19.35;;;;;;;;;;5012692;28;19921;-68
2022/04/14 08:52:55;;;;;;;29.27;18.30;;;;;;;;;;5012717;28;20050;-68
2022/04/14 08:55:22;;;;;;;31.63;18.80;;;;;;;;;;5012729;28;20431;-68
2022/04/14 08:57:49;;;;;;;31.08;18.20;;;;;;;;;;5013440;28;20052;-69
2022/04/14 09:00:18;;;;;;;28.75;18.25;;;;;;;;;;5013267;28;20508;-68
2022/04/14 09:02:46;;;;;;;34.05;19.27;;;;;;;;;;5013557;28;20057;-68
2022/04/14 09:05:14;;;;;;;29.45;18.58;;;;;;;;;;5012490;28;20045;-69
2022/04/14 09:07:44;;;;;;;31.13;18.73;;;;;;;;;;5012695;28;20092;-68
2022/04/14 09:10:11;;;;;;;28.02;17.35;;;;;;;;;;5012536;28;20056;-68
2022/04/14 09:12:38;;;;;;;31.30;17.55;;;;;;;;;;5012939;28;20049;-70
2022/04/14 09:15:07;;;;;;;27.13;17.15;;;;;;;;;;5013014;28;20054;-69
2022/04/14 09:17:34;;;;;;;34.80;18.88;;;;;;;;;;5012421;28;20388;-69
2022/04/14 09:20:01;;;;;;;32.88;18.58;;;;;;;;;;5011973;28;20060;-69
2022/04/14 09:22:28;;;;;;;33.38;19.88;;;;;;;;;;5012505;28;20399;-68
2022/04/14 09:24:57;;;;;;;30.73;17.98;;;;;;;;;;5012482;28;20069;-69
2022/04/14 09:27:27;;;;;;;31.20;19.23;;;;;;;;;;5012824;28;20050;-68
2022/04/14 09:29:55;;;;;;;27.48;18.20;;;;;;;;;;5012501;28;20054;-68
2022/04/14 09:32:30;;;;;;;28.52;18.00;;;;;;;;;;5011829;28;20072;-68
2022/04/14 09:34:59;;;;;;;28.55;18.10;;;;;;;;;;5008403;28;20053;-69
2022/04/14 09:37:27;;;;;;;28.45;18.40;;;;;;;;;;4992172;28;20475;-68
2022/04/14 09:40:05;;;;;;;27.02;16.05;;;;;;;;;;4992760;28;20054;-68
2022/04/14 09:42:34;;;;;;;32.47;16.75;;;;;;;;;;4992738;28;20054;-68
2022/04/14 09:45:18;;;;;;;30.85;18.08;;;;;;;;;;4995380;28;20109;-68
2022/04/14 09:47:46;;;;;;;28.40;16.77;;;;;;;;;;5012507;28;20054;-68
2022/04/14 09:50:27;;;;;;;30.50;17.95;;;;;;;;;;5012055;28;20120;-68
2022/04/14 09:53:02;;;;;;;29.25;17.83;;;;;;;;;;5012070;28;20050;-68
2022/04/14 09:55:30;;;;;;;25.73;16.65;;;;;;;;;;5011665;28;20049;-68
2022/04/14 09:58:12;;;;;;;33.15;17.92;;;;;;;;;;5011414;28;20046;-69
2022/04/14 10:00:40;;;;;;;29.88;19.05;;;;;;;;;;4991595;28;20054;-68
2022/04/14 10:03:12;;;;;;;30.65;18.23;;;;;;;;;;4991177;28;20061;-68
2022/04/14 10:05:40;;;;;;;27.90;19.15;;;;;;;;;;4991259;28;20496;-69
2022/04/14 10:08:08;;;;;;;27.63;17.63;;;;;;;;;;4991022;28;20096;-68
2022/04/14 10:10:38;;;;;;;28.77;16.92;;;;;;;;;;4991669;28;20073;-68
2022/04/14 10:13:06;;;;;;;27.63;18.33;;;;;;;;;;4992166;28;20042;-68
2022/04/14 10:15:36;;;;;;;33.85;21.30;;;;;;;;;;4991275;28;20054;-69
2022/04/14 10:18:06;;;;;;;29.70;19.58;;;;;;;;;;5004327;28;20099;-69
2022/04/14 10:20:35;;;;;;;30.50;17.83;;;;;;;;;;5011179;28;20058;-68
2022/04/14 10:23:02;;;;;;;26.50;15.85;;;;;;;;;;5011611;28;20057;-69
2022/04/14 10:25:30;;;;;;;30.38;16.85;;;;;;;;;;5011232;28;20053;-69
2022/04/14 10:27:59;;;;;;;31.42;18.55;;;;;;;;;;5011204;28;20096;-69
2022/04/14 10:30:27;;;;;;;24.08;15.77;;;;;;;;;;5011150;28;20535;-68
2022/04/14 10:32:56;;;;;;;26.83;17.75;;;;;;;;;;5011151;28;20057;-70
2022/04/14 10:35:25;;;;;;;29.08;18.05;;;;;;;;;;5010739;28;20056;-69
2022/04/14 10:37:58;;;;;;;26.65;16.90;;;;;;;;;;5010850;28;20458;-69
2022/04/14 10:40:26;;;;;;;28.25;16.73;;;;;;;;;;5010950;28;20057;-70
2022/04/14 10:42:56;;;;;;;25.77;17.35;;;;;;;;;;5011128;28;20046;-70
2022/04/14 10:45:24;;;;;;;26.48;17.35;;;;;;;;;;5011293;28;20057;-71
2022/04/14 10:48:01;;;;;;;23.73;14.88;;;;;;;;;;5011277;28;20399;-68
2022/04/14 10:50:31;;;;;;;27.48;14.98;;;;;;;;;;5010192;28;20058;-68
2022/04/14 10:53:06;;;;;;;23.15;14.55;;;;;;;;;;5010850;28;20050;-68
2022/04/14 10:55:38;;;;;;;22.23;15.30;;;;;;;;;;5010980;28;20053;-68
2022/04/14 10:58:06;;;;;;;22.15;13.40;;;;;;;;;;5011072;28;20104;-69
2022/04/14 11:00:38;;;;;;;23.13;13.82;;;;;;;;;;5011128;28;20423;-69
2022/04/14 11:03:11;;;;;;;22.45;13.48;;;;;;;;;;5011057;28;20050;-69
2022/04/14 11:05:45;;;;;;;27.30;15.23;;;;;;;;;;5010199;28;20089;-68
2022/04/14 11:08:26;;;;;;;22.15;14.73;;;;;;;;;;5010384;28;20847;-68
2022/04/14 11:11:11;;;;;;;23.70;15.07;;;;;;;;;;5010618;28;20060;-69
2022/04/14 11:14:05;;;;;;;28.45;16.17;;;;;;;;;;5010373;28;20057;-68
2022/04/14 11:16:47;;;;;;;22.75;13.55;;;;;;;;;;4996403;28;20050;-68
2022/04/14 11:19:25;;;;;;;24.67;14.55;;;;;;;;;;5008591;28;20084;-68
2022/04/14 11:22:04;;;;;;;25.73;14.07;;;;;;;;;;5010081;28;20108;-68
2022/04/14 11:24:40;;;;;;;23.15;13.90;;;;;;;;;;5010801;28;20041;-68
2022/04/14 11:27:14;;;;;;;22.25;14.20;;;;;;;;;;5010210;28;20054;-68
2022/04/14 11:29:42;;;;;;;23.13;14.27;;;;;;;;;;5010553;28;20139;-68
2022/04/14 11:32:13;;;;;;;23.70;14.32;;;;;;;;;;5010476;28;20125;-68
2022/04/14 11:34:41;;;;;;;20.35;13.50;;;;;;;;;;5010490;28;20108;-68
2022/04/14 11:37:38;;;;;;;23.90;14.88;;;;;;;;;;5010049;28;20050;-68
2022/04/14 11:40:15;;;;;;;22.50;14.57;;;;;;;;;;5009791;28;20478;-68
2022/04/14 11:42:42;;;;;;;25.83;15.18;;;;;;;;;;5011421;28;20466;-68
2022/04/14 11:45:09;;;;;;;21.50;15.65;;;;;;;;;;5011056;28;20093;-68
2022/04/14 11:47:39;;;;;;;26.75;16.30;;;;;;;;;;4994588;28;20428;-68
2022/04/14 11:50:07;;;;;;;27.77;17.67;;;;;;;;;;4994639;28;20050;-68
2022/04/14 11:52:35;;;;;;;48.17;25.52;;;;;;;;;;4994372;28;20057;-68
2022/04/14 11:55:02;;;;;;;22.75;13.45;;;;;;;;;;4994356;28;20064;-72
2022/04/14 11:57:31;;;;;;;21.63;12.80;;;;;;;;;;4995066;28;20157;-68
2022/04/14 12:00:10;;;;;;;19.85;13.48;;;;;;;;;;4994226;28;20145;-68
2022/04/14 12:02:39;;;;;;;23.23;14.90;;;;;;;;;;4994450;28;20518;-68
2022/04/14 12:05:07;;;;;;;20.60;13.50;;;;;;;;;;4993998;28;20050;-67
2022/04/14 12:07:35;;;;;;;19.27;13.32;;;;;;;;;;4994459;28;20061;-67
2022/04/14 12:10:03;;;;;;;22.98;15.23;;;;;;;;;;4993890;28;20062;-68
2022/04/14 12:12:32;;;;;;;21.55;13.18;;;;;;;;;;4994693;28;20050;-68
2022/04/14 12:15:00;;;;;;;26.90;16.08;;;;;;;;;;4994525;28;20058;-67
2022/04/14 12:17:27;;;;;;;40.05;23.73;;;;;;;;;;4994086;28;20065;-67
2022/04/14 12:19:58;;;;;;;20.52;14.63;;;;;;;;;;4994242;28;20054;-68
2022/04/14 12:22:28;;;;;;;23.08;13.75;;;;;;;;;;4994445;28;20055;-68
2022/04/14 12:24:56;;;;;;;20.98;14.25;;;;;;;;;;4994218;28;20046;-67
2022/04/14 12:27:27;;;;;;;21.02;15.15;;;;;;;;;;4994519;28;20046;-68
2022/04/14 12:29:55;;;;;;;22.83;14.43;;;;;;;;;;4994640;28;20492;-68
2022/04/14 12:32:26;;;;;;;20.25;14.38;;;;;;;;;;4994252;28;20133;-68
2022/04/14 12:34:55;;;;;;;21.73;15.38;;;;;;;;;;4994583;28;20064;-69
2022/04/14 12:37:22;;;;;;;22.25;15.88;;;;;;;;;;4994281;28;20141;-69
2022/04/14 12:39:57;;;;;;;19.35;14.82;;;;;;;;;;4994363;28;20447;-69
2022/04/14 12:42:29;;;;;;;21.35;15.27;;;;;;;;;;4994395;28;20559;-68
2022/04/14 12:45:04;;;;;;;23.92;15.95;;;;;;;;;;4996374;28;20478;-68
2022/04/14 12:47:31;;;;;;;22.33;17.10;;;;;;;;;;5013657;28;20056;-68
2022/04/14 12:49:59;;;;;;;27.05;18.58;;;;;;;;;;5013196;28;20069;-68
2022/04/14 12:52:27;;;;;;;25.25;18.05;;;;;;;;;;5013805;28;20145;-68
2022/04/14 12:54:55;;;;;;;21.77;15.38;;;;;;;;;;5012217;28;20054;-67
2022/04/14 12:57:23;;;;;;;20.02;14.63;;;;;;;;;;5013011;28;20087;-68
2022/04/14 13:00:20;;;;;;;19.27;13.43;;;;;;;;;;5013315;28;20046;-68
2022/04/14 13:03:00;;;;;;;15.27;11.65;;;;;;;;;;5013446;28;20085;-68
2022/04/14 13:05:30;;;;;;;21.80;12.48;;;;;;;;;;5012842;28;20301;-69
2022/04/14 13:07:58;;;;;;;16.08;12.38;;;;;;;;;;5012854;28;20153;-68
2022/04/14 13:10:28;;;;;;;21.08;14.32;;;;;;;;;;5012777;28;20056;-69
2022/04/14 13:12:55;;;;;;;25.83;15.90;;;;;;;;;;5013151;28;20056;-68
2022/04/14 13:15:23;;;;;;;15.80;12.05;;;;;;;;;;5012543;28;20061;-68
2022/04/14 13:17:51;;;;;;;15.25;11.02;;;;;;;;;;5012512;28;20172;-68
2022/04/14 13:20:20;;;;;;;12.68;10.30;;;;;;;;;;5011989;28;20142;-69
2022/04/14 13:22:51;;;;;;;16.88;12.13;;;;;;;;;;5012254;28;20141;-68
2022/04/14 13:25:18;;;;;;;20.30;12.70;;;;;;;;;;5012700;28;20313;-68
2022/04/14 13:27:46;;;;;;;15.90;10.85;;;;;;;;;;5011704;28;20046;-68
2022/04/14 13:30:14;;;;;;;20.90;14.65;;;;;;;;;;5011812;28;20058;-67
2022/04/14 13:32:41;;;;;;;16.00;11.32;;;;;;;;;;5011648;28;20053;-68
2022/04/14 13:35:08;;;;;;;13.35;10.55;;;;;;;;;;5012025;28;20046;-69
2022/04/14 13:37:35;;;;;;;13.02;10.43;;;;;;;;;;5011965;28;20045;-68
2022/04/14 13:40:05;;;;;;;14.10;9.13;;;;;;;;;;5012021;28;20046;-68
2022/04/14 13:42:33;;;;;;;15.15;9.68;;;;;;;;;;5009190;28;20659;-69
2022/04/14 13:45:00;;;;;;;11.35;9.30;;;;;;;;;;4994864;28;20056;-69
2022/04/14 13:47:27;;;;;;;12.85;9.27;;;;;;;;;;4992986;28;20580;-67
2022/04/14 13:49:54;;;;;;;10.57;6.97;;;;;;;;;;5006512;28;20411;-68
2022/04/14 13:52:21;;;;;;;10.40;7.03;;;;;;;;;;5012795;28;20053;-68
2022/04/14 13:54:48;;;;;;;9.35;7.07;;;;;;;;;;5012065;28;20141;-69
2022/04/14 13:57:17;;;;;;;7.97;5.85;;;;;;;;;;5012272;28;20220;-69
2022/04/14 13:59:44;;;;;;;8.32;6.30;;;;;;;;;;5011986;28;20058;-68
2022/04/14 14:02:12;;;;;;;8.93;7.35;;;;;;;;;;5012178;28;20050;-68
2022/04/14 14:04:39;;;;;;;12.05;8.68;;;;;;;;;;5011689;28;20053;-68
2022/04/14 14:07:06;;;;;;;13.45;10.15;;;;;;;;;;5024201;22;20042;-64
2022/04/14 14:09:33;;;;;;;12.82;9.85;;;;;;;;;;5011660;28;20057;-65
2022/04/14 14:12:00;;;;;;;12.52;9.23;;;;;;;;;;5011928;28;20081;-65
2022/04/14 14:14:29;;;;;;;15.13;12.10;;;;;;;;;;5011885;28;20058;-65
2022/04/14 14:16:56;;;;;;;16.63;11.32;;;;;;;;;;5011931;28;20046;-64
2022/04/14 14:19:23;;;;;;;17.60;12.15;;;;;;;;;;5011422;28;20454;-64
2022/04/14 14:21:50;;;;;;;16.08;12.55;;;;;;;;;;5011555;28;20403;-65
2022/04/14 14:24:17;;;;;;;16.92;12.13;;;;;;;;;;5012383;28;20454;-64
2022/04/14 14:26:44;;;;;;;14.80;11.63;;;;;;;;;;5011129;28;20049;-65